Time;durP1;ratioP1;P1;durP2;ratioP2;P2;SDS_P1;SDS_P2;PMS_P1;PMS_P2;Temp;Humidity;BMP_temperature;BMP_pressure;BME280_temperature;BME280_humidity;BME280_pressure;Samples;Min_cycle;Max_cycle;Signal;HPM_P1;HPM_P2
2022/07/03 03:01:25;;;;;;;0.70;0.60;;;19.70;74.30;;;;;;5748151;23;20569;-71
2022/07/03 03:04:02;;;;;;;0.80;0.60;;;19.80;74.20;;;;;;4936105;29;20447;-70
2022/07/03 03:06:31;;;;;;;0.70;0.50;;;19.80;74.10;;;;;;4936050;29;20431;-70
2022/07/03 03:09:03;;;;;;;0.70;0.60;;;19.70;74.20;;;;;;4935945;29;20483;-70
2022/07/03 03:11:39;;;;;;;0.70;0.50;;;19.70;74.50;;;;;;4945120;29;20591;-70
2022/07/03 03:14:13;;;;;;;0.70;0.60;;;19.70;74.30;;;;;;4959041;28;20485;-68
2022/07/03 03:16:47;;;;;;;0.70;0.60;;;19.50;74.70;;;;;;4959066;29;20450;-70
2022/07/03 03:19:14;;;;;;;0.70;0.50;;;19.60;74.90;;;;;;4958714;29;20783;-70
2022/07/03 03:21:59;;;;;;;0.70;0.60;;;19.50;74.80;;;;;;4958839;29;20466;-70
2022/07/03 03:24:27;;;;;;;0.70;0.60;;;19.50;75.30;;;;;;4958922;29;20850;-69
2022/07/03 03:26:54;;;;;;;0.70;0.60;;;19.60;75.00;;;;;;4958546;29;20450;-70
2022/07/03 03:29:20;;;;;;;0.70;0.50;;;19.70;74.60;;;;;;4958694;29;20535;-70
2022/07/03 03:31:48;;;;;;;0.70;0.60;;;19.60;74.60;;;;;;4958652;29;20474;-70
2022/07/03 03:34:16;;;;;;;0.70;0.60;;;19.60;75.00;;;;;;4958354;29;20455;-70
2022/07/03 03:36:43;;;;;;;0.73;0.60;;;19.70;74.70;;;;;;4958640;29;20454;-70
2022/07/03 03:39:09;;;;;;;0.70;0.60;;;19.80;74.60;;;;;;4958588;29;20457;-70
2022/07/03 03:41:36;;;;;;;0.87;0.60;;;19.70;74.30;;;;;;4958532;29;20498;-70
2022/07/03 03:44:03;;;;;;;0.70;0.60;;;19.60;74.70;;;;;;4958733;29;20455;-71
2022/07/03 03:46:29;;;;;;;0.70;0.60;;;19.50;74.90;;;;;;4958247;29;21005;-72
2022/07/03 03:48:58;;;;;;;0.70;0.60;;;19.60;74.90;;;;;;4958389;29;20537;-70
2022/07/03 03:51:25;;;;;;;0.70;0.60;;;19.70;74.70;;;;;;4958357;29;20474;-71
2022/07/03 03:53:51;;;;;;;0.70;0.60;;;19.60;74.80;;;;;;4958031;29;20454;-70
2022/07/03 03:56:18;;;;;;;0.70;0.60;;;19.60;74.90;;;;;;4958312;29;20450;-70
2022/07/03 03:58:45;;;;;;;0.70;0.60;;;19.60;75.00;;;;;;4958256;29;20451;-71
2022/07/03 04:01:12;;;;;;;0.70;0.60;;;19.50;74.90;;;;;;4957988;29;20482;-71
2022/07/03 04:03:40;;;;;;;0.73;0.57;;;19.50;75.50;;;;;;4958239;29;20451;-70
2022/07/03 04:06:08;;;;;;;0.70;0.60;;;19.60;75.10;;;;;;4958178;28;20532;-70
2022/07/03 04:08:36;;;;;;;0.70;0.60;;;19.70;74.60;;;;;;4958067;28;20577;-70
2022/07/03 04:11:02;;;;;;;0.70;0.60;;;19.70;74.70;;;;;;4957986;29;20470;-71
2022/07/03 04:13:29;;;;;;;1.07;0.60;;;19.80;74.70;;;;;;4958029;29;20505;-71
2022/07/03 04:15:55;;;;;;;0.70;0.60;;;20.00;74.30;;;;;;4957922;29;20450;-71
2022/07/03 04:18:23;;;;;;;0.70;0.50;;;20.10;74.00;;;;;;4957986;29;20447;-70
2022/07/03 04:20:49;;;;;;;0.70;0.63;;;20.20;73.60;;;;;;4957516;29;20887;-71
2022/07/03 04:23:17;;;;;;;0.70;0.60;;;20.30;73.40;;;;;;4957855;29;20450;-70
2022/07/03 04:25:44;;;;;;;0.70;0.60;;;20.50;73.10;;;;;;4956972;28;20453;-70
2022/07/03 04:28:11;;;;;;;0.70;0.50;;;20.60;72.60;;;;;;4957592;29;20455;-70
2022/07/03 04:30:38;;;;;;;0.70;0.60;;;20.40;72.70;;;;;;4957604;29;20529;-70
2022/07/03 04:33:04;;;;;;;0.70;0.50;;;20.50;72.90;;;;;;4957634;29;20455;-70
2022/07/03 04:35:31;;;;;;;0.70;0.60;;;20.40;72.90;;;;;;4957286;29;20877;-70
2022/07/03 04:37:58;;;;;;;0.70;0.50;;;20.50;73.00;;;;;;4957543;29;20459;-70
2022/07/03 04:40:26;;;;;;;0.70;0.60;;;20.50;72.80;;;;;;4957483;29;20454;-71
2022/07/03 04:42:52;;;;;;;0.63;0.50;;;20.60;73.00;;;;;;4957481;29;20446;-71
2022/07/03 04:45:19;;;;;;;0.70;0.50;;;20.70;72.70;;;;;;4957446;29;20501;-70
2022/07/03 04:47:46;;;;;;;0.70;0.60;;;20.80;72.40;;;;;;4957408;29;20510;-70
2022/07/03 04:50:12;;;;;;;0.70;0.50;;;21.00;72.20;;;;;;4957228;29;20483;-71
2022/07/03 04:52:39;;;;;;;0.70;0.60;;;21.00;72.00;;;;;;4957237;29;20467;-70
2022/07/03 04:55:07;;;;;;;0.70;0.50;;;21.10;72.10;;;;;;4957299;29;20454;-70
2022/07/03 04:57:35;;;;;;;0.70;0.50;;;21.20;71.70;;;;;;4957214;29;20454;-71
2022/07/03 05:00:02;;;;;;;0.70;0.60;;;21.20;72.10;;;;;;4957180;29;20502;-72
2022/07/03 05:02:28;;;;;;;0.70;0.60;;;21.40;71.80;;;;;;4956626;29;20896;-71
2022/07/03 05:04:55;;;;;;;0.70;0.50;;;21.50;71.40;;;;;;4957103;29;20463;-71
2022/07/03 05:07:22;;;;;;;0.67;0.50;;;21.70;71.00;;;;;;4957049;29;20454;-71
2022/07/03 05:09:48;;;;;;;0.70;0.50;;;21.90;70.70;;;;;;4956633;29;20500;-72
2022/07/03 05:12:15;;;;;;;0.83;0.60;;;22.00;70.40;;;;;;4957432;29;20471;-71
2022/07/03 05:14:43;;;;;;;0.63;0.50;;;21.80;70.50;;;;;;4956874;29;20454;-71
2022/07/03 05:17:10;;;;;;;0.70;0.50;;;21.90;70.60;;;;;;4956824;29;20451;-72
2022/07/03 05:19:38;;;;;;;0.70;0.50;;;22.00;70.40;;;;;;4956797;29;20450;-71
2022/07/03 05:22:05;;;;;;;0.70;0.50;;;21.90;70.50;;;;;;4956718;29;20526;-72
2022/07/03 05:24:31;;;;;;;0.70;0.60;;;21.50;71.50;;;;;;4957118;28;20450;-72
2022/07/03 05:26:58;;;;;;;1.00;0.50;;;21.80;71.60;;;;;;4956622;29;20800;-73
2022/07/03 05:29:24;;;;;;;0.70;0.50;;;22.00;70.80;;;;;;4956528;29;20479;-72
2022/07/03 05:31:53;;;;;;;0.63;0.50;;;21.90;70.80;;;;;;4956558;29;20521;-73
2022/07/03 05:34:19;;;;;;;0.70;0.50;;;21.90;70.60;;;;;;4956450;29;20513;-71
2022/07/03 05:36:46;;;;;;;0.70;0.50;;;21.90;70.60;;;;;;4956465;28;20451;-71
2022/07/03 05:41:59;;;;;;;0.60;0.50;;;21.80;71.20;;;;;;4951001;28;20462;-71
2022/07/03 05:44:26;;;;;;;0.70;0.60;;;21.80;71.20;;;;;;4956325;29;20462;-71
2022/07/03 05:46:54;;;;;;;0.70;0.70;;;21.80;71.60;;;;;;4956280;29;20446;-71
2022/07/03 05:49:20;;;;;;;0.70;0.60;;;22.00;72.10;;;;;;4956219;29;20479;-70
2022/07/03 05:51:47;;;;;;;0.70;0.50;;;22.30;70.50;;;;;;4956133;29;20471;-71
2022/07/03 05:54:14;;;;;;;0.80;0.60;;;22.30;71.10;;;;;;4956095;29;20450;-71
2022/07/03 05:56:40;;;;;;;0.70;0.50;;;22.50;70.60;;;;;;4956140;29;20459;-71
2022/07/03 05:59:07;;;;;;;0.70;0.60;;;22.60;70.20;;;;;;4955769;29;20938;-73
2022/07/03 06:01:33;;;;;;;0.70;0.60;;;22.60;69.70;;;;;;4955777;29;20553;-73
2022/07/03 06:04:01;;;;;;;0.70;0.57;;;22.80;69.30;;;;;;4956001;29;20855;-72
2022/07/03 06:06:28;;;;;;;0.70;0.60;;;23.00;69.70;;;;;;4955937;29;20454;-73
2022/07/03 06:08:55;;;;;;;0.70;0.60;;;23.10;69.70;;;;;;4955801;29;20487;-71
2022/07/03 06:11:22;;;;;;;0.80;0.60;;;23.40;68.80;;;;;;4956049;29;20475;-70
2022/07/03 06:13:48;;;;;;;0.70;0.53;;;23.50;67.70;;;;;;4955909;29;20950;-71
2022/07/03 06:16:15;;;;;;;0.70;0.60;;;23.80;68.30;;;;;;4955777;29;20859;-71
2022/07/03 06:18:42;;;;;;;0.70;0.63;;;23.80;67.30;;;;;;4955441;29;21005;-71
2022/07/03 06:21:10;;;;;;;0.90;0.60;;;23.70;67.10;;;;;;4955669;29;20467;-70
2022/07/03 06:23:37;;;;;;;0.63;0.50;;;23.60;67.10;;;;;;4955384;29;20455;-72
2022/07/03 06:26:03;;;;;;;0.80;0.70;;;23.50;69.50;;;;;;4955377;29;20878;-71
2022/07/03 06:28:30;;;;;;;0.70;0.60;;;23.70;67.40;;;;;;4955351;29;20946;-71
2022/07/03 06:30:56;;;;;;;0.80;0.50;;;23.80;67.50;;;;;;4955127;29;21063;-71
2022/07/03 06:33:23;;;;;;;0.70;0.60;;;23.60;67.30;;;;;;4955260;29;20454;-71
2022/07/03 06:35:50;;;;;;;0.90;0.60;;;23.60;66.80;;;;;;4955662;29;20840;-71
2022/07/03 06:38:18;;;;;;;0.70;0.60;;;23.70;66.60;;;;;;4955108;29;20950;-71
2022/07/03 06:40:45;;;;;;;0.70;0.50;;;23.80;67.10;;;;;;4955068;29;20901;-71
2022/07/03 06:43:11;;;;;;;0.70;0.60;;;24.10;65.90;;;;;;4955135;29;20958;-71
2022/07/03 06:45:38;;;;;;;0.73;0.53;;;23.90;66.70;;;;;;4955140;29;20913;-71
2022/07/03 06:48:05;;;;;;;0.70;0.57;;;24.00;65.70;;;;;;4954875;29;20510;-71
2022/07/03 06:50:32;;;;;;;0.70;0.57;;;24.10;66.70;;;;;;4955118;29;20538;-71
2022/07/03 06:52:58;;;;;;;0.70;0.70;;;24.20;66.90;;;;;;4955315;29;20447;-71
2022/07/03 06:55:26;;;;;;;0.70;0.50;;;24.30;64.40;;;;;;4955224;29;20450;-72
2022/07/03 06:57:53;;;;;;;0.70;0.50;;;24.40;66.20;;;;;;4955288;29;20461;-71
2022/07/03 07:00:20;;;;;;;1.63;0.60;;;24.60;64.40;;;;;;4955164;29;20506;-72
2022/07/03 07:02:46;;;;;;;0.70;0.60;;;24.50;64.40;;;;;;4954809;29;20514;-71
2022/07/03 07:05:13;;;;;;;0.70;0.60;;;24.50;66.00;;;;;;4955178;29;20497;-71
2022/07/03 07:07:40;;;;;;;0.70;0.60;;;24.90;64.40;;;;;;4954869;29;20946;-71
2022/07/03 07:10:08;;;;;;;0.70;0.50;;;25.10;62.20;;;;;;4954809;29;20487;-71
2022/07/03 07:12:36;;;;;;;0.70;0.57;;;25.20;62.10;;;;;;4955153;28;20502;-71
2022/07/03 07:15:02;;;;;;;0.80;0.50;;;25.30;60.60;;;;;;4955154;29;20455;-71
2022/07/03 07:17:29;;;;;;;0.70;0.50;;;25.40;61.30;;;;;;4954785;29;21014;-71
2022/07/03 07:19:56;;;;;;;0.70;0.50;;;25.30;60.70;;;;;;4954896;29;20443;-71
2022/07/03 07:22:25;;;;;;;0.70;0.50;;;25.20;61.40;;;;;;4955016;28;20502;-71
2022/07/03 07:24:51;;;;;;;0.70;0.50;;;25.40;62.60;;;;;;4955010;29;20542;-71
2022/07/03 07:27:18;;;;;;;1.63;0.60;;;25.70;62.60;;;;;;4955035;29;20451;-71
2022/07/03 07:29:46;;;;;;;0.70;0.50;;;25.90;58.80;;;;;;4955696;29;20533;-71
2022/07/03 07:32:13;;;;;;;0.70;0.50;;;25.80;59.30;;;;;;4954939;28;20526;-70
2022/07/03 07:34:39;;;;;;;0.67;0.50;;;25.60;60.30;;;;;;4954928;29;20479;-71
2022/07/03 07:37:06;;;;;;;0.70;0.60;;;25.50;60.00;;;;;;4954936;29;20489;-71
2022/07/03 07:39:33;;;;;;;0.70;0.53;;;25.70;60.30;;;;;;4954917;29;20447;-71
2022/07/03 07:42:00;;;;;;;0.90;0.60;;;26.00;58.20;;;;;;4954834;29;20479;-71
2022/07/03 07:44:26;;;;;;;0.70;0.60;;;26.20;57.90;;;;;;4954879;29;20455;-71
2022/07/03 07:46:54;;;;;;;0.70;0.60;;;26.50;55.30;;;;;;4954530;29;20997;-71
2022/07/03 07:49:21;;;;;;;1.03;0.60;;;26.50;56.40;;;;;;4954724;29;20451;-71
2022/07/03 07:51:48;;;;;;;0.70;0.60;;;26.20;56.20;;;;;;4954719;29;20522;-70
2022/07/03 07:54:14;;;;;;;0.70;0.50;;;26.10;58.70;;;;;;4954775;29;20455;-71
2022/07/03 07:56:41;;;;;;;0.70;0.57;;;26.30;58.80;;;;;;4954752;29;20450;-71
2022/07/03 07:59:08;;;;;;;0.70;0.67;;;26.60;57.80;;;;;;4954494;28;21009;-71
2022/07/03 08:07:04;;;;;;;0.70;0.50;;;27.10;51.80;;;;;;4957959;29;20449;-71
2022/07/03 08:09:31;;;;;;;0.70;0.50;;;26.80;54.00;;;;;;4957962;29;20446;-71
2022/07/03 08:11:58;;;;;;;0.70;0.60;;;26.60;52.90;;;;;;4958001;29;20466;-71
2022/07/03 08:14:24;;;;;;;0.70;0.50;;;26.50;51.90;;;;;;4958000;29;20455;-71
2022/07/03 08:16:51;;;;;;;0.70;0.60;;;26.50;53.00;;;;;;4957957;29;20455;-71
2022/07/03 08:19:18;;;;;;;0.70;0.50;;;26.60;54.80;;;;;;4957864;29;20446;-71
2022/07/03 08:21:46;;;;;;;0.70;0.50;;;26.50;55.80;;;;;;4957786;29;20470;-71
2022/07/03 08:24:12;;;;;;;0.70;0.60;;;26.30;54.60;;;;;;4957808;29;20447;-71
2022/07/03 08:26:39;;;;;;;0.70;0.50;;;26.40;54.80;;;;;;4957822;29;20517;-70
2022/07/03 08:29:06;;;;;;;0.77;0.77;;;26.60;55.10;;;;;;4957693;29;20505;-70
2022/07/03 08:31:32;;;;;;;1.10;0.60;;;26.70;55.50;;;;;;4957560;29;20542;-71
2022/07/03 08:33:59;;;;;;;0.70;0.60;;;26.70;54.80;;;;;;4957639;29;20501;-71
2022/07/03 08:36:26;;;;;;;0.70;0.50;;;26.60;54.40;;;;;;4957594;29;20522;-71
2022/07/03 08:38:54;;;;;;;0.90;0.60;;;26.80;54.30;;;;;;4957689;29;21013;-71
2022/07/03 08:41:21;;;;;;;0.70;0.60;;;26.90;53.00;;;;;;4957713;29;20471;-71
2022/07/03 08:43:50;;;;;;;0.70;0.50;;;27.00;53.70;;;;;;4957513;29;20442;-71
2022/07/03 08:46:17;;;;;;;0.70;0.50;;;27.00;55.30;;;;;;4957437;29;20455;-71
2022/07/03 08:48:45;;;;;;;0.70;0.50;;;26.80;51.00;;;;;;4957440;29;20450;-71
2022/07/03 08:51:12;;;;;;;0.70;0.50;;;26.70;53.90;;;;;;4957243;29;20550;-71
2022/07/03 08:53:39;;;;;;;0.70;0.50;;;26.70;55.00;;;;;;4957011;29;20451;-71
2022/07/03 08:56:09;;;;;;;0.70;0.50;;;26.70;53.90;;;;;;4957347;28;20553;-71
2022/07/03 08:58:36;;;;;;;1.30;0.60;;;26.80;52.80;;;;;;4956961;29;20439;-71
2022/07/03 09:01:03;;;;;;;0.70;0.60;;;27.00;52.40;;;;;;4956970;29;20490;-69
2022/07/03 09:03:31;;;;;;;0.70;0.50;;;27.30;52.70;;;;;;4957153;29;20423;-68
2022/07/03 09:05:58;;;;;;;0.70;0.50;;;27.30;52.90;;;;;;4957092;29;20509;-71
2022/07/03 09:08:27;;;;;;;0.70;0.50;;;27.40;51.20;;;;;;4956958;29;20541;-71
2022/07/03 09:10:54;;;;;;;0.70;0.60;;;27.50;52.50;;;;;;4956544;28;20577;-72
2022/07/03 09:13:22;;;;;;;0.70;0.60;;;27.60;53.70;;;;;;4956929;29;20451;-71
2022/07/03 09:15:49;;;;;;;0.70;0.50;;;27.60;51.80;;;;;;4958306;29;20479;-71
2022/07/03 09:18:15;;;;;;;0.70;0.60;;;27.80;48.00;;;;;;4956611;28;21002;-71
2022/07/03 09:20:43;;;;;;;0.70;0.60;;;28.10;48.10;;;;;;4956732;29;20498;-71
2022/07/03 09:23:15;;;;;;;0.70;0.60;;;28.10;46.50;;;;;;4956721;29;20497;-71
2022/07/03 09:25:52;;;;;;;0.70;0.50;;;28.00;50.00;;;;;;4956502;29;20974;-71
2022/07/03 09:28:22;;;;;;;0.83;0.60;;;28.20;48.70;;;;;;4956604;29;20451;-71
2022/07/03 09:31:02;;;;;;;0.70;0.60;;;28.30;47.50;;;;;;4956466;29;20494;-71
2022/07/03 09:33:29;;;;;;;0.70;0.60;;;28.20;46.80;;;;;;4956552;29;20454;-72
2022/07/03 09:35:56;;;;;;;1.00;0.50;;;28.10;47.10;;;;;;4956521;29;20483;-71
2022/07/03 09:38:24;;;;;;;0.70;0.50;;;28.00;46.90;;;;;;4956510;28;20458;-71
2022/07/03 09:40:52;;;;;;;0.70;0.50;;;28.00;47.50;;;;;;4956042;29;20826;-71
2022/07/03 09:43:25;;;;;;;0.70;0.50;;;27.90;47.30;;;;;;4956373;29;20450;-71
2022/07/03 09:45:54;;;;;;;0.70;0.60;;;28.00;50.00;;;;;;4956077;29;20884;-70
2022/07/03 09:48:26;;;;;;;1.10;0.60;;;27.60;48.60;;;;;;4955911;29;20861;-71
2022/07/03 09:51:15;;;;;;;0.70;0.50;;;27.70;47.70;;;;;;4956103;29;20495;-71
2022/07/03 09:53:46;;;;;;;0.70;0.53;;;27.60;49.70;;;;;;4956281;28;20431;-71
2022/07/03 09:56:13;;;;;;;0.80;0.50;;;28.00;49.20;;;;;;4955837;29;20877;-71
2022/07/03 09:58:41;;;;;;;1.50;0.50;;;28.40;48.30;;;;;;4956115;29;20497;-71
2022/07/03 10:01:18;;;;;;;0.70;0.50;;;28.70;50.40;;;;;;4955846;29;20474;-71
2022/07/03 10:03:44;;;;;;;0.70;0.50;;;29.00;47.80;;;;;;4956107;29;20435;-71
2022/07/03 10:06:11;;;;;;;0.70;0.60;;;29.40;46.20;;;;;;4956001;29;20498;-71
2022/07/03 10:08:38;;;;;;;0.70;0.50;;;29.60;46.90;;;;;;4955910;29;20448;-72
2022/07/03 10:11:05;;;;;;;0.70;0.50;;;29.60;46.80;;;;;;4955463;29;20910;-72
2022/07/03 10:13:38;;;;;;;0.70;0.50;;;29.80;46.80;;;;;;4955929;28;20509;-71
2022/07/03 10:16:06;;;;;;;0.70;0.50;;;29.90;49.60;;;;;;4955861;29;20432;-71
2022/07/03 10:18:37;;;;;;;0.70;0.50;;;30.10;45.90;;;;;;4955437;29;21014;-71
2022/07/03 10:21:07;;;;;;;0.70;0.50;;;30.10;45.10;;;;;;4955788;28;20554;-71
2022/07/03 10:23:34;;;;;;;0.70;0.60;;;29.80;47.20;;;;;;4955338;28;20498;-71
2022/07/03 10:26:01;;;;;;;0.70;0.50;;;30.10;47.60;;;;;;4955643;29;20451;-72
2022/07/03 10:28:29;;;;;;;0.60;0.50;;;30.20;46.20;;;;;;4955650;28;20522;-71
2022/07/03 10:30:56;;;;;;;0.70;0.60;;;30.30;44.50;;;;;;4955507;29;20491;-71
2022/07/03 10:33:25;;;;;;;0.70;0.50;;;30.40;46.80;;;;;;4955588;29;20450;-71
2022/07/03 10:35:54;;;;;;;0.70;0.50;;;30.20;47.20;;;;;;4955571;29;20491;-72
2022/07/03 10:38:35;;;;;;;0.60;0.50;;;30.60;46.70;;;;;;4955493;29;20505;-71
2022/07/03 10:46:37;;;;;;;0.67;0.50;;;30.00;47.60;;;;;;4955551;29;20781;-72
2022/07/03 10:49:08;;;;;;;0.70;0.50;;;29.90;45.30;;;;;;4955365;29;20451;-72
2022/07/03 10:51:56;;;;;;;0.70;0.50;;;29.80;46.80;;;;;;4955272;29;20573;-71
2022/07/03 10:54:24;;;;;;;0.70;0.50;;;29.80;46.90;;;;;;4955264;29;20459;-71
2022/07/03 10:57:09;;;;;;;0.70;0.50;;;30.00;47.00;;;;;;4955279;29;20505;-71
2022/07/03 11:00:15;;;;;;;0.60;0.50;;;30.10;48.10;;;;;;4955377;28;20494;-71
2022/07/03 11:02:44;;;;;;;0.70;0.50;;;30.30;48.40;;;;;;4954935;29;20482;-72
2022/07/03 11:05:25;;;;;;;0.60;0.50;;;30.40;46.30;;;;;;4955937;29;20501;-72
2022/07/03 11:08:22;;;;;;;0.70;0.50;;;30.50;45.50;;;;;;4955428;28;20439;-71
2022/07/03 11:11:54;;;;;;;0.60;0.50;;;30.60;45.80;;;;;;4877187;29;20494;-71
2022/07/03 11:13:35;;;;;;;0.70;0.50;;;30.60;46.20;;;;;;4947280;28;20443;-71
2022/07/03 11:16:02;;;;;;;0.70;0.50;;;30.70;46.80;;;;;;4955124;29;20451;-71
2022/07/03 11:18:31;;;;;;;0.70;0.50;;;30.70;47.00;;;;;;4955104;29;20622;-71
2022/07/03 11:21:23;;;;;;;0.60;0.50;;;30.50;44.90;;;;;;4955024;29;20474;-72
2022/07/03 11:24:07;;;;;;;0.67;0.50;;;30.50;44.90;;;;;;4955047;29;20431;-72
2022/07/03 11:26:34;;;;;;;0.70;0.50;;;30.50;45.50;;;;;;4954765;29;20973;-72
2022/07/03 11:29:01;;;;;;;0.70;0.50;;;30.00;46.20;;;;;;4954737;29;20938;-71
2022/07/03 11:31:27;;;;;;;0.70;0.60;;;29.90;46.10;;;;;;4954874;29;20498;-71
2022/07/03 11:33:59;;;;;;;0.70;0.60;;;29.50;45.90;;;;;;4956230;28;20451;-71
2022/07/03 11:36:29;;;;;;;0.80;0.50;;;29.30;47.80;;;;;;4958787;29;20848;-71
2022/07/03 11:39:09;;;;;;;0.70;0.50;;;29.70;47.50;;;;;;4958710;29;20427;-71
2022/07/03 11:41:47;;;;;;;0.80;0.50;;;29.90;49.20;;;;;;4958327;28;20502;-71
2022/07/03 11:44:21;;;;;;;0.70;0.60;;;29.90;45.90;;;;;;4958608;28;20497;-71
2022/07/03 11:46:50;;;;;;;0.70;0.60;;;29.90;45.10;;;;;;4958519;29;20456;-71
2022/07/03 11:49:19;;;;;;;0.70;0.50;;;30.00;47.40;;;;;;4958416;29;20455;-71
2022/07/03 11:52:00;;;;;;;0.70;0.60;;;30.00;45.70;;;;;;4958281;29;20490;-71
2022/07/03 11:54:30;;;;;;;0.90;0.90;;;29.90;46.10;;;;;;4958117;29;20439;-71
2022/07/03 11:56:57;;;;;;;0.70;0.60;;;30.00;46.10;;;;;;4958863;29;20462;-71
2022/07/03 11:59:24;;;;;;;0.70;0.60;;;30.30;46.90;;;;;;4958030;29;20925;-71
2022/07/03 12:01:50;;;;;;;0.70;0.50;;;29.80;44.70;;;;;;4957879;29;20486;-71
2022/07/03 12:04:19;;;;;;;0.70;0.50;;;29.70;46.10;;;;;;4958167;29;20451;-71
2022/07/03 12:06:49;;;;;;;0.70;0.50;;;29.80;45.70;;;;;;4958223;29;20509;-72
2022/07/03 12:09:19;;;;;;;0.70;0.50;;;30.00;46.00;;;;;;4958153;29;20529;-71
2022/07/03 12:11:57;;;;;;;0.60;0.50;;;30.00;46.80;;;;;;4957743;28;21008;-71
2022/07/03 12:14:41;;;;;;;0.67;0.50;;;30.00;44.00;;;;;;4958023;29;20455;-72
2022/07/03 12:17:10;;;;;;;0.70;0.50;;;30.20;45.70;;;;;;4958819;29;20446;-71
2022/07/03 12:19:38;;;;;;;0.60;0.50;;;30.40;44.40;;;;;;4957927;29;20451;-71
2022/07/03 12:22:05;;;;;;;0.70;0.60;;;30.50;43.50;;;;;;4957851;29;20474;-71
2022/07/03 12:24:34;;;;;;;0.70;0.60;;;30.60;46.70;;;;;;4957927;29;20505;-71
2022/07/03 12:27:03;;;;;;;0.60;0.50;;;30.50;45.00;;;;;;4957525;29;20831;-71
2022/07/03 12:29:30;;;;;;;0.60;0.50;;;30.50;46.80;;;;;;4957860;28;20514;-71
2022/07/03 12:31:57;;;;;;;0.70;0.50;;;30.80;42.10;;;;;;4957282;29;20486;-71
2022/07/03 12:34:23;;;;;;;0.70;0.50;;;31.00;45.70;;;;;;4957700;29;20446;-71
2022/07/03 12:36:58;;;;;;;0.70;0.50;;;31.00;43.20;;;;;;4957372;29;20455;-71
2022/07/03 12:39:25;;;;;;;0.70;0.50;;;30.60;43.10;;;;;;4957578;29;20450;-71
2022/07/03 12:41:53;;;;;;;0.60;0.50;;;30.70;44.50;;;;;;4957416;29;20498;-71
2022/07/03 12:44:20;;;;;;;0.70;0.60;;;30.90;43.10;;;;;;4957545;29;20447;-71
2022/07/03 12:46:47;;;;;;;0.70;0.50;;;30.80;41.70;;;;;;4956774;28;20551;-71
2022/07/03 12:49:14;;;;;;;2.70;0.60;;;30.90;44.70;;;;;;4957379;29;20451;-71
2022/07/03 12:51:43;;;;;;;0.70;0.50;;;31.30;44.30;;;;;;4957272;29;20541;-71
2022/07/03 12:54:11;;;;;;;0.60;0.50;;;31.50;44.30;;;;;;4957041;29;20517;-71
2022/07/03 12:56:38;;;;;;;0.67;0.50;;;31.50;40.70;;;;;;4957316;29;20506;-71
2022/07/03 12:59:17;;;;;;;0.60;0.50;;;31.20;44.50;;;;;;4958047;29;20510;-71
2022/07/03 13:01:45;;;;;;;0.60;0.50;;;30.90;42.10;;;;;;4956912;29;20483;-71
2022/07/03 13:04:15;;;;;;;0.60;0.50;;;30.90;41.70;;;;;;4957149;29;20514;-71
2022/07/03 13:06:42;;;;;;;0.70;0.50;;;31.20;42.40;;;;;;4957110;29;20455;-71
2022/07/03 13:09:09;;;;;;;0.63;0.50;;;31.40;41.20;;;;;;4956982;29;20450;-72
2022/07/03 13:11:37;;;;;;;0.60;0.50;;;31.40;42.30;;;;;;4956878;29;20482;-73
2022/07/03 13:14:11;;;;;;;0.60;0.50;;;31.30;43.50;;;;;;4956914;29;20510;-73
2022/07/03 13:16:45;;;;;;;0.70;0.50;;;31.40;42.10;;;;;;4956953;29;20451;-72
2022/07/03 13:19:13;;;;;;;0.70;0.57;;;31.40;43.60;;;;;;4956865;29;20436;-74
2022/07/03 13:21:40;;;;;;;0.60;0.50;;;31.40;41.30;;;;;;4956738;29;20467;-72
2022/07/03 13:24:08;;;;;;;0.70;0.50;;;31.30;40.80;;;;;;4957306;29;20455;-72
2022/07/03 13:26:35;;;;;;;0.60;0.50;;;31.40;43.30;;;;;;4956673;29;20482;-72
2022/07/03 13:29:03;;;;;;;0.60;0.50;;;31.40;42.80;;;;;;4956692;29;20503;-73
2022/07/03 13:31:31;;;;;;;0.60;0.50;;;31.50;42.60;;;;;;4956471;29;20497;-73
2022/07/03 13:33:58;;;;;;;1.30;0.50;;;31.60;40.30;;;;;;4956561;29;20482;-73
2022/07/03 13:36:25;;;;;;;0.60;0.50;;;31.40;43.40;;;;;;4956257;29;20454;-73
2022/07/03 13:38:52;;;;;;;0.70;0.60;;;31.40;41.30;;;;;;4956629;29;20451;-74
2022/07/03 13:41:20;;;;;;;0.70;0.60;;;31.20;42.40;;;;;;4956582;29;20462;-73
2022/07/03 13:43:47;;;;;;;1.23;0.50;;;31.10;42.10;;;;;;4956660;29;20481;-74
2022/07/03 13:46:15;;;;;;;0.80;0.60;;;30.90;43.30;;;;;;4956121;29;20505;-78
2022/07/03 13:48:43;;;;;;;0.70;0.60;;;31.10;44.30;;;;;;4956478;29;20454;-75
2022/07/03 13:51:09;;;;;;;0.80;0.50;;;31.20;42.00;;;;;;4956263;29;20471;-73
2022/07/03 13:53:36;;;;;;;0.70;0.50;;;31.40;41.70;;;;;;4955965;29;20935;-74
2022/07/03 13:56:03;;;;;;;0.70;0.50;;;31.70;42.00;;;;;;4955952;29;21023;-74
2022/07/03 13:58:30;;;;;;;0.70;0.50;;;31.80;43.10;;;;;;4955247;28;20510;-74
2022/07/03 14:00:57;;;;;;;0.70;0.60;;;32.00;43.20;;;;;;4955645;29;20982;-73
2022/07/03 14:03:23;;;;;;;0.60;0.50;;;32.00;45.10;;;;;;4955773;29;20803;-73
2022/07/03 14:05:51;;;;;;;0.60;0.50;;;32.30;43.20;;;;;;4956514;29;20502;-73
2022/07/03 14:08:19;;;;;;;0.80;0.50;;;32.50;44.20;;;;;;4956051;28;20451;-73
2022/07/03 14:10:45;;;;;;;0.60;0.50;;;32.80;43.50;;;;;;4955952;28;20548;-73
2022/07/03 14:13:12;;;;;;;0.63;0.50;;;32.70;43.90;;;;;;4955833;29;20534;-75
2022/07/03 14:15:39;;;;;;;0.77;0.53;;;32.70;46.60;;;;;;4955880;29;20446;-76
2022/07/03 14:18:06;;;;;;;0.70;0.50;;;32.80;43.60;;;;;;4955809;29;20506;-73
2022/07/03 14:20:32;;;;;;;0.60;0.50;;;33.20;45.30;;;;;;4955739;29;20451;-76
2022/07/03 14:23:00;;;;;;;0.60;0.50;;;33.50;41.50;;;;;;4955743;29;20505;-76
2022/07/03 14:25:27;;;;;;;0.70;0.60;;;33.80;42.40;;;;;;4955711;29;20498;-75
2022/07/03 14:33:22;;;;;;;0.80;0.60;;;33.60;43.90;;;;;;4955366;29;21020;-73
2022/07/03 14:35:48;;;;;;;0.70;0.60;;;33.80;44.10;;;;;;4955639;29;20456;-72
2022/07/03 14:38:16;;;;;;;0.60;0.50;;;33.90;43.40;;;;;;4955512;29;20497;-72
2022/07/03 14:40:43;;;;;;;0.60;0.60;;;33.90;44.60;;;;;;4955449;29;20450;-72
2022/07/03 14:43:10;;;;;;;0.60;0.50;;;34.10;43.40;;;;;;4955476;29;20505;-71
2022/07/03 14:45:36;;;;;;;0.60;0.50;;;34.20;43.80;;;;;;4955423;29;20450;-72
2022/07/03 14:48:03;;;;;;;0.90;0.60;;;34.50;43.40;;;;;;4955066;29;20878;-71
2022/07/03 14:50:30;;;;;;;0.70;0.60;;;34.60;44.00;;;;;;4955298;29;20480;-72
2022/07/03 14:52:56;;;;;;;0.70;0.60;;;34.50;44.20;;;;;;4955264;29;20478;-71
2022/07/03 14:55:32;;;;;;;0.70;0.60;;;34.70;42.70;;;;;;4955330;29;20497;-72
2022/07/03 14:58:04;;;;;;;0.90;0.50;;;34.80;42.40;;;;;;4955384;29;20441;-71
2022/07/03 15:00:34;;;;;;;0.60;0.50;;;34.70;42.10;;;;;;4955203;29;20509;-72
2022/07/03 15:03:05;;;;;;;0.60;0.50;;;34.60;41.90;;;;;;4954854;29;20454;-73
2022/07/03 15:05:33;;;;;;;1.37;0.60;;;34.60;42.40;;;;;;4955337;28;20509;-72
2022/07/03 15:08:07;;;;;;;0.60;0.50;;;34.50;42.00;;;;;;4955184;28;20447;-73
2022/07/03 15:10:36;;;;;;;0.60;0.50;;;34.60;42.50;;;;;;4959142;29;20438;-72
2022/07/03 15:13:05;;;;;;;0.80;0.60;;;34.60;41.50;;;;;;4959053;29;20485;-72
2022/07/03 15:15:33;;;;;;;0.70;0.50;;;34.60;42.10;;;;;;4960417;29;20454;-73
2022/07/03 15:18:01;;;;;;;0.70;0.50;;;34.70;41.60;;;;;;4959094;29;20497;-72
2022/07/03 15:20:37;;;;;;;0.70;0.50;;;34.70;42.30;;;;;;4958943;29;20509;-73
2022/07/03 15:23:06;;;;;;;0.90;0.50;;;34.70;41.80;;;;;;4959539;29;20438;-73
2022/07/03 15:25:37;;;;;;;0.70;0.60;;;34.80;41.50;;;;;;4958853;29;20458;-72
2022/07/03 15:28:04;;;;;;;0.70;0.50;;;34.80;41.60;;;;;;4958865;29;20490;-72
2022/07/03 15:30:32;;;;;;;0.70;0.50;;;34.70;41.40;;;;;;4958488;29;20997;-73
2022/07/03 15:33:00;;;;;;;0.70;0.60;;;34.80;41.80;;;;;;4958771;28;20545;-73
2022/07/03 15:35:27;;;;;;;0.60;0.50;;;34.60;41.70;;;;;;4958513;29;20974;-72
2022/07/03 15:38:10;;;;;;;0.70;0.50;;;34.60;41.60;;;;;;4958448;29;21005;-73
2022/07/03 15:40:48;;;;;;;0.70;0.60;;;34.70;41.70;;;;;;4958742;28;20508;-71
2022/07/03 15:43:36;;;;;;;0.93;0.60;;;34.50;41.60;;;;;;4958404;28;20981;-72
2022/07/03 15:46:06;;;;;;;0.60;0.50;;;34.30;42.30;;;;;;4958569;29;20445;-71
2022/07/03 15:48:43;;;;;;;0.80;0.50;;;34.40;42.00;;;;;;4958488;29;20450;-71
2022/07/03 15:51:19;;;;;;;0.60;0.50;;;34.30;42.50;;;;;;4958471;29;20522;-71
2022/07/03 15:53:49;;;;;;;0.60;0.50;;;34.20;41.50;;;;;;4958469;28;20474;-71
2022/07/03 15:56:20;;;;;;;0.63;0.50;;;34.20;41.90;;;;;;4958374;29;20479;-71
2022/07/03 15:58:50;;;;;;;0.70;0.50;;;34.10;41.90;;;;;;4958043;29;20977;-71
2022/07/03 16:04:08;;;;;;;0.70;0.50;;;33.70;42.20;;;;;;4958351;29;20406;-72
2022/07/03 16:06:37;;;;;;;0.60;0.50;;;33.60;42.10;;;;;;4958217;29;20526;-71
2022/07/03 16:09:04;;;;;;;0.63;0.53;;;33.40;42.50;;;;;;4957901;28;20953;-71
2022/07/03 16:11:34;;;;;;;0.60;0.60;;;33.40;43.20;;;;;;4958037;29;20471;-71
2022/07/03 16:14:04;;;;;;;0.70;0.50;;;33.40;43.70;;;;;;4957702;29;21100;-71
2022/07/03 16:16:31;;;;;;;0.60;0.50;;;33.20;43.10;;;;;;4957768;29;20978;-71
2022/07/03 16:19:03;;;;;;;0.60;0.50;;;33.00;43.60;;;;;;4957956;29;20450;-71